Alpha, Washington
Current Conditions -  °F | °C
As of 12:55 PM on Sunday 21 Dec 2014 (Local Time) from KCLS Reporting Station
Clear Clear  
Wind Chill: 57°   Ceiling: Unl
Heat Index: 57°   Visibility: 10mi
Dew Point: 50°   Wind: 7mph
Humidity: 77%   Direction: NA
Pressure: 30.02"   Gusts: 15mph
Location:  46.5995°N, 122.665°W
Report Text: KCLS 212055Z AUTO VRB06G13KT 10SM CLR 14/10 A3002 RMK AO2
Loading
Personal Weather Stations






























Interactive Weather Map New forecast layout! Learn more

10-Day Weather Forecast

Advertisements
Track Severe Weather on mobile